Time;durP1;ratioP1;P1;durP2;ratioP2;P2;SDS_P1;SDS_P2;PMS_P1;PMS_P2;Temp;Humidity;BMP_temperature;BMP_pressure;BME280_temperature;BME280_humidity;BME280_pressure;Samples;Min_cycle;Max_cycle;Signal;HPM_P1;HPM_P2
2022/06/10 00:00:46;;;;;;;1.92;0.82;;;;;;;14.32;100.00;101765.66;6373540;27;20051;-75
2022/06/10 00:03:47;;;;;;;3.42;0.80;;;;;;;14.28;100.00;101769.38;6373408;27;20054;-75
2022/06/10 00:06:50;;;;;;;4.30;1.20;;;;;;;14.18;100.00;101769.00;6373699;27;20051;-75
2022/06/10 00:09:51;;;;;;;1.42;1.00;;;;;;;14.11;100.00;101770.25;6373273;27;20046;-75
2022/06/10 00:12:53;;;;;;;0.60;0.60;;;;;;;14.09;100.00;101761.56;6381750;27;20497;-75
2022/06/10 00:15:55;;;;;;;3.33;0.88;;;;;;;14.07;100.00;101759.91;6398695;27;20053;-75
2022/06/10 00:18:57;;;;;;;1.33;0.82;;;;;;;14.03;100.00;101750.44;6399498;27;20047;-76
2022/06/10 00:22:00;;;;;;;1.25;0.82;;;;;;;14.00;100.00;101761.19;6398864;27;20054;-75
2022/06/10 00:25:01;;;;;;;3.83;1.00;;;;;;;13.97;100.00;101764.81;6398656;27;20088;-76
2022/06/10 00:28:03;;;;;;;1.33;0.80;;;;;;;13.91;100.00;101763.38;6399318;27;20070;-75
2022/06/10 00:31:04;;;;;;;1.98;1.35;;;;;;;13.85;100.00;101768.09;6398575;27;20054;-76
2022/06/10 00:34:06;;;;;;;1.55;0.77;;;;;;;13.79;100.00;101763.13;6396707;27;20045;-75
2022/06/10 00:37:08;;;;;;;2.60;1.10;;;;;;;13.80;100.00;101767.47;6398776;27;20057;-75
2022/06/10 00:40:14;;;;;;;3.67;1.20;;;;;;;13.74;100.00;101762.50;6397961;27;20069;-75
2022/06/10 00:43:18;;;;;;;1.27;0.93;;;;;;;13.74;100.00;101767.78;6398750;27;20050;-75
2022/06/10 00:46:24;;;;;;;4.35;1.60;;;;;;;13.72;100.00;101770.50;6398165;27;20050;-75
2022/06/10 00:49:26;;;;;;;3.72;0.90;;;;;;;13.73;100.00;101771.38;6398384;27;20051;-75
2022/06/10 00:52:35;;;;;;;3.13;1.00;;;;;;;13.60;100.00;101768.47;6398143;27;20058;-75
2022/06/10 00:55:37;;;;;;;1.48;0.90;;;;;;;13.50;100.00;101778.66;6398174;27;20418;-75
2022/06/10 00:58:44;;;;;;;3.17;1.25;;;;;;;13.41;100.00;101782.59;6398166;27;20057;-76
2022/06/10 01:01:46;;;;;;;3.22;1.00;;;;;;;13.37;100.00;101796.88;6396360;27;20053;-75
2022/06/10 01:04:48;;;;;;;3.47;1.00;;;;;;;13.30;100.00;101795.44;6397641;27;20493;-75
2022/06/10 01:07:55;;;;;;;1.15;1.00;;;;;;;13.27;100.00;101797.38;6398165;27;20409;-75
2022/06/10 01:11:12;;;;;;;2.03;1.05;;;;;;;13.22;100.00;101802.88;6397584;27;20051;-75
2022/06/10 01:14:27;;;;;;;1.80;1.45;;;;;;;13.17;100.00;101797.78;6397950;27;20050;-75
2022/06/10 01:17:43;;;;;;;1.17;0.95;;;;;;;13.24;100.00;101797.53;6397884;27;20050;-75
2022/06/10 01:20:55;;;;;;;4.35;1.23;;;;;;;13.19;100.00;101808.25;6397722;27;20050;-76
2022/06/10 01:24:26;;;;;;;1.20;1.00;;;;;;;13.18;100.00;101812.69;6397267;27;20043;-75
2022/06/10 01:27:58;;;;;;;4.38;1.35;;;;;;;13.12;100.00;101814.75;6394693;27;20050;-76
2022/06/10 01:31:10;;;;;;;1.27;1.17;;;;;;;13.08;100.00;101807.91;6397543;27;20057;-76
2022/06/10 01:34:27;;;;;;;5.65;1.35;;;;;;;13.05;100.00;101801.00;6395455;27;20051;-75
2022/06/10 01:37:37;;;;;;;1.95;1.20;;;;;;;13.01;100.00;101806.50;6398221;27;20489;-76
2022/06/10 01:40:47;;;;;;;4.63;1.65;;;;;;;12.93;100.00;101802.41;6397070;27;20047;-75
2022/06/10 01:43:54;;;;;;;;;;;;;;;12.85;100.00;101808.97;6397790;27;20505;-75
2022/06/10 01:47:03;;;;;;;1.45;1.10;;;;;;;12.75;100.00;101808.53;6397539;27;19919;-75
2022/06/10 01:50:10;;;;;;;;;;;;;;;12.70;100.00;101808.75;6397658;27;20047;-75
2022/06/10 01:53:15;;;;;;;1.73;1.08;;;;;;;12.66;100.00;101814.22;6397323;27;19919;-76
2022/06/10 01:56:22;;;;;;;3.53;1.35;;;;;;;12.57;100.00;101809.38;6397305;27;20059;-76
2022/06/10 01:59:28;;;;;;;5.05;1.40;;;;;;;12.53;100.00;101810.41;6397101;27;20050;-75
2022/06/10 02:02:34;;;;;;;1.90;1.27;;;;;;;12.51;100.00;101807.00;6399944;27;20046;-75
2022/06/10 02:05:40;;;;;;;2.33;1.23;;;;;;;12.46;100.00;101809.84;6400149;27;20038;-75
2022/06/10 02:08:46;;;;;;;2.33;1.20;;;;;;;12.41;100.00;101807.41;6380158;27;20062;-75
2022/06/10 02:11:51;;;;;;;2.25;1.45;;;;;;;12.38;100.00;101825.13;6376619;27;20047;-75
2022/06/10 02:14:58;;;;;;;1.42;1.20;;;;;;;12.33;100.00;101824.50;6375698;27;20513;-76
2022/06/10 02:18:05;;;;;;;2.75;1.20;;;;;;;12.26;100.00;101809.84;6376511;27;20065;-75
2022/06/10 02:21:12;;;;;;;4.75;1.77;;;;;;;12.26;100.00;101821.25;6375752;27;20051;-75
2022/06/10 02:24:19;;;;;;;2.75;1.20;;;;;;;12.22;100.00;101824.97;6374315;27;20047;-74
2022/06/10 02:27:26;;;;;;;2.35;1.45;;;;;;;12.16;100.00;101812.03;6374783;27;20047;-75
2022/06/10 02:30:31;;;;;;;3.25;1.30;;;;;;;12.13;100.00;101818.31;6375246;27;20663;-75
2022/06/10 02:33:34;;;;;;;3.58;1.33;;;;;;;12.12;100.00;101820.97;6376297;27;20506;-75
2022/06/10 02:36:43;;;;;;;2.72;1.80;;;;;;;12.09;100.00;101821.13;6375524;27;20445;-75
2022/06/10 02:39:47;;;;;;;2.10;1.58;;;;;;;12.04;100.00;101818.69;6375677;27;20051;-75
2022/06/10 02:42:57;;;;;;;1.52;1.17;;;;;;;11.99;100.00;101825.06;6375662;27;20047;-75
2022/06/10 02:46:06;;;;;;;2.72;1.25;;;;;;;11.97;100.00;101819.84;6375738;27;20051;-75
2022/06/10 02:49:12;;;;;;;1.98;1.60;;;;;;;11.94;100.00;101822.59;6377189;27;20057;-74
2022/06/10 02:52:16;;;;;;;3.40;1.83;;;;;;;11.92;100.00;101827.94;6375116;27;20399;-76
2022/06/10 02:55:22;;;;;;;2.17;1.63;;;;;;;11.89;100.00;101841.25;6375507;27;20047;-75
2022/06/10 03:01:55;;;;;;;7.25;2.20;;;;;;;11.85;100.00;101841.44;6375228;27;20070;-75
2022/06/10 03:05:14;;;;;;;1.30;1.10;;;;;;;11.82;100.00;101838.91;6375043;27;20043;-75
2022/06/10 03:08:26;;;;;;;2.63;1.48;;;;;;;11.81;100.00;101834.53;6375502;27;20058;-75
2022/06/10 03:11:36;;;;;;;3.47;1.65;;;;;;;11.80;100.00;101843.38;6375878;27;20455;-75
2022/06/10 03:14:44;;;;;;;2.33;1.60;;;;;;;11.78;100.00;101842.59;6373570;27;20133;-75
2022/06/10 03:17:55;;;;;;;4.97;1.75;;;;;;;11.76;100.00;101852.31;6374959;27;20047;-75
2022/06/10 03:21:09;;;;;;;1.65;1.55;;;;;;;11.74;100.00;101851.53;6374625;27;20051;-75
2022/06/10 03:24:18;;;;;;;2.53;1.80;;;;;;;11.72;100.00;101855.97;6374569;27;20040;-75
2022/06/10 03:27:27;;;;;;;2.28;1.65;;;;;;;11.73;100.00;101852.47;6374899;27;20047;-76
2022/06/10 03:30:34;;;;;;;3.30;1.63;;;;;;;11.72;100.00;101859.50;6374336;27;20055;-75
2022/06/10 03:33:39;;;;;;;3.58;1.60;;;;;;;11.73;100.00;101855.94;6380068;27;20540;-75
2022/06/10 03:36:44;;;;;;;2.13;1.45;;;;;;;11.69;100.00;101857.84;6400316;27;20053;-75
2022/06/10 03:39:51;;;;;;;2.30;1.80;;;;;;;11.71;100.00;101859.53;6400012;27;20050;-75
2022/06/10 03:42:57;;;;;;;3.75;1.27;;;;;;;11.72;100.00;101867.41;6400077;27;20054;-75
2022/06/10 03:46:01;;;;;;;3.38;1.83;;;;;;;11.75;100.00;101862.00;6399794;27;20186;-75
2022/06/10 03:49:07;;;;;;;2.45;1.58;;;;;;;11.77;100.00;101865.44;6399870;27;20054;-75
2022/06/10 03:52:20;;;;;;;5.15;1.30;;;;;;;11.79;100.00;101870.63;6399846;27;20054;-75
2022/06/10 03:55:21;;;;;;;3.10;1.60;;;;;;;11.84;100.00;101868.69;6399525;27;20049;-75
2022/06/10 03:58:23;;;;;;;4.20;1.95;;;;;;;11.78;100.00;101867.16;6398166;27;20493;-75
2022/06/10 04:01:24;;;;;;;5.32;1.60;;;;;;;11.81;100.00;101869.66;6399236;27;20521;-75
2022/06/10 04:04:25;;;;;;;3.17;1.95;;;;;;;11.85;100.00;101873.88;6399571;27;20043;-75
2022/06/10 04:07:28;;;;;;;2.80;1.85;;;;;;;11.82;100.00;101878.41;6399537;27;20046;-75
2022/06/10 04:10:31;;;;;;;2.53;1.42;;;;;;;11.85;100.00;101878.31;6399407;27;20050;-75
2022/06/10 04:13:32;;;;;;;1.77;1.40;;;;;;;11.88;100.00;101886.94;6389434;27;20050;-75
2022/06/10 04:16:33;;;;;;;6.25;1.63;;;;;;;11.92;100.00;101887.69;6373356;27;20047;-75
2022/06/10 04:19:35;;;;;;;3.35;1.40;;;;;;;11.96;100.00;101886.66;6373730;27;20067;-75
2022/06/10 04:22:38;;;;;;;2.20;1.50;;;;;;;12.03;100.00;101896.00;6373096;27;20051;-75
2022/06/10 04:25:40;;;;;;;2.17;1.17;;;;;;;12.06;100.00;101895.03;6372742;27;20088;-75
2022/06/10 04:28:41;;;;;;;2.10;1.45;;;;;;;12.13;100.00;101894.72;6373425;27;20058;-75
2022/06/10 04:31:43;;;;;;;2.90;1.70;;;;;;;12.21;100.00;101894.38;6373916;27;20051;-75
2022/06/10 04:34:44;;;;;;;4.97;2.35;;;;;;;12.30;100.00;101887.88;6372811;27;20043;-75
2022/06/10 04:37:48;;;;;;;5.95;2.00;;;;;;;12.36;100.00;101887.63;6373622;27;20050;-75
2022/06/10 04:40:49;;;;;;;4.18;2.10;;;;;;;12.42;100.00;101893.47;6372625;27;20082;-75
2022/06/10 04:43:51;;;;;;;13.60;2.85;;;;;;;12.51;100.00;101894.88;6372610;27;20061;-75
2022/06/10 04:46:52;;;;;;;3.38;2.58;;;;;;;12.58;100.00;101896.34;6372909;27;20058;-75
2022/06/10 04:49:59;;;;;;;5.07;3.15;;;;;;;12.62;100.00;101883.84;6370913;27;20054;-75
2022/06/10 04:53:02;;;;;;;12.05;3.75;;;;;;;12.69;100.00;101893.22;6371469;27;20047;-75
2022/06/10 04:56:03;;;;;;;6.88;3.25;;;;;;;12.74;100.00;101891.22;6370788;27;20047;-75
2022/06/10 04:59:05;;;;;;;8.05;3.35;;;;;;;12.77;100.00;101891.09;6371203;27;20043;-75
2022/06/10 05:02:06;;;;;;;6.40;2.90;;;;;;;12.86;100.00;101895.97;6373036;27;20039;-75
2022/06/10 05:05:09;;;;;;;5.07;3.28;;;;;;;12.92;100.00;101902.75;6372270;27;20077;-75
2022/06/10 05:08:14;;;;;;;4.97;3.00;;;;;;;12.99;100.00;101901.56;6370678;27;20050;-75
2022/06/10 05:11:15;;;;;;;5.32;3.22;;;;;;;13.07;100.00;101912.59;6370795;27;20051;-76
2022/06/10 05:14:17;;;;;;;6.07;3.88;;;;;;;13.17;100.00;101915.69;6371300;27;20062;-75
2022/06/10 05:17:18;;;;;;;6.45;3.47;;;;;;;13.20;100.00;101913.78;6372502;27;20047;-75
2022/06/10 05:20:24;;;;;;;5.45;3.22;;;;;;;13.29;100.00;101917.81;6371658;27;20426;-75
2022/06/10 05:23:26;;;;;;;4.18;3.15;;;;;;;13.36;100.00;101915.75;6372350;27;20047;-75
2022/06/10 05:26:29;;;;;;;6.40;3.40;;;;;;;13.41;100.00;101914.63;6370665;27;20043;-75
2022/06/10 05:29:30;;;;;;;7.15;4.18;;;;;;;13.50;100.00;101920.41;6370331;27;20410;-75
2022/06/10 05:32:32;;;;;;;4.57;2.90;;;;;;;13.56;100.00;101915.66;6370326;27;20043;-75
2022/06/10 05:35:34;;;;;;;6.72;3.88;;;;;;;13.64;100.00;101924.09;6369403;27;20477;-75
2022/06/10 05:38:36;;;;;;;8.32;4.05;;;;;;;13.71;100.00;101922.00;6370104;27;20047;-76
2022/06/10 05:44:57;;;;;;;6.25;3.15;;;;;;;13.86;100.00;101917.78;6368464;28;20043;-75
2022/06/10 05:48:00;;;;;;;6.60;4.03;;;;;;;13.92;100.00;101920.13;6369973;28;20051;-75
2022/06/10 05:51:01;;;;;;;8.02;3.60;;;;;;;13.98;100.00;101914.53;6369917;28;20047;-75
2022/06/10 05:54:05;;;;;;;9.98;4.10;;;;;;;14.06;100.00;101907.09;6371281;28;20047;-75
2022/06/10 05:57:07;;;;;;;6.32;3.70;;;;;;;14.16;100.00;101912.78;6371811;28;20051;-75
2022/06/10 06:00:14;;;;;;;4.97;3.03;;;;;;;14.24;100.00;101910.59;6371156;28;20046;-75
2022/06/10 06:03:15;;;;;;;7.20;3.53;;;;;;;14.30;100.00;101915.59;6395839;27;20175;-75
2022/06/10 06:06:17;;;;;;;6.97;3.53;;;;;;;14.38;100.00;101916.06;6396860;27;20054;-75
2022/06/10 06:09:20;;;;;;;7.78;3.33;;;;;;;14.48;100.00;101916.47;6397373;27;20057;-75
2022/06/10 06:12:23;;;;;;;3.53;2.72;;;;;;;14.61;100.00;101919.34;6396934;27;20406;-76
2022/06/10 06:15:25;;;;;;;4.65;2.30;;;;;;;14.70;100.00;101910.94;6396817;27;20050;-75
2022/06/10 06:18:26;;;;;;;6.32;2.75;;;;;;;14.79;100.00;101915.75;6397290;27;20058;-76
2022/06/10 06:21:27;;;;;;;5.25;2.85;;;;;;;14.87;100.00;101924.16;6396707;27;20057;-75
2022/06/10 06:24:30;;;;;;;5.65;2.80;;;;;;;14.94;100.00;101922.91;6396954;27;20038;-75
2022/06/10 06:27:32;;;;;;;6.40;2.53;;;;;;;15.03;100.00;101918.03;6397033;27;20043;-76
2022/06/10 06:30:37;;;;;;;4.70;2.60;;;;;;;15.11;100.00;101913.19;6387339;27;20047;-75
2022/06/10 06:33:38;;;;;;;6.78;2.65;;;;;;;15.19;100.00;101917.13;6371274;28;20047;-75
2022/06/10 06:36:42;;;;;;;4.75;2.60;;;;;;;15.29;100.00;101914.00;6371115;28;20058;-75
2022/06/10 06:39:44;;;;;;;3.75;2.05;;;;;;;15.35;100.00;101914.53;6370810;28;20050;-75
2022/06/10 06:42:47;;;;;;;5.63;2.90;;;;;;;15.42;100.00;101920.34;6371190;28;20047;-75
2022/06/10 06:45:48;;;;;;;5.07;2.22;;;;;;;15.51;100.00;101911.88;6370597;28;20409;-74
2022/06/10 06:48:50;;;;;;;6.43;2.92;;;;;;;15.61;100.00;101920.16;6374096;27;20494;-74
2022/06/10 06:51:52;;;;;;;6.60;2.85;;;;;;;15.69;100.00;101918.84;6375413;27;20047;-74
2022/06/10 06:54:55;;;;;;;3.97;2.95;;;;;;;15.80;100.00;101922.66;6375356;27;20422;-75
2022/06/10 06:57:56;;;;;;;3.88;2.28;;;;;;;15.88;100.00;101923.94;6375363;27;20055;-75
2022/06/10 07:00:57;;;;;;;5.88;1.85;;;;;;;15.94;100.00;101920.97;6376387;27;20054;-75
2022/06/10 07:03:59;;;;;;;2.42;2.10;;;;;;;16.00;100.00;101925.06;6396344;27;20050;-75
2022/06/10 07:07:01;;;;;;;5.45;2.80;;;;;;;16.08;100.00;101919.28;6400878;27;20061;-75
2022/06/10 07:10:04;;;;;;;3.40;1.92;;;;;;;16.18;100.00;101924.00;6400844;27;20183;-75
2022/06/10 07:13:06;;;;;;;6.97;2.33;;;;;;;16.27;100.00;101925.25;6400682;27;20054;-75
2022/06/10 07:16:08;;;;;;;4.65;2.45;;;;;;;16.36;100.00;101938.00;6400281;27;20395;-74
2022/06/10 07:19:09;;;;;;;3.20;1.80;;;;;;;16.46;100.00;101923.22;6400702;27;20050;-75
2022/06/10 07:22:11;;;;;;;5.95;2.08;;;;;;;16.56;100.00;101930.66;6400396;27;20046;-76
2022/06/10 07:25:14;;;;;;;3.65;2.00;;;;;;;16.65;100.00;101920.31;6400170;27;20058;-75
2022/06/10 07:28:16;;;;;;;4.80;2.38;;;;;;;16.75;100.00;101933.94;6400252;27;20172;-75
2022/06/10 07:31:17;;;;;;;4.65;2.53;;;;;;;16.90;100.00;101934.81;6399079;27;20494;-76
2022/06/10 07:34:18;;;;;;;3.40;1.75;;;;;;;16.94;99.85;101931.88;6400146;27;20387;-75
2022/06/10 07:37:20;;;;;;;2.25;1.48;;;;;;;17.13;90.67;101936.06;6400860;27;20523;-74
2022/06/10 07:43:45;;;;;;;1.73;1.40;;;;;;;17.47;90.48;101932.97;6399688;27;20078;-76
2022/06/10 07:46:47;;;;;;;2.33;1.67;;;;;;;17.54;91.12;101935.28;6400128;27;20042;-75
2022/06/10 07:49:49;;;;;;;6.88;1.77;;;;;;;17.49;90.21;101933.75;6399636;27;20051;-75
2022/06/10 07:52:50;;;;;;;2.00;1.40;;;;;;;17.49;90.57;101932.91;6399805;27;20425;-75
2022/06/10 07:55:53;;;;;;;2.90;1.75;;;;;;;17.47;90.91;101926.81;6397832;27;20046;-75
2022/06/10 07:58:58;;;;;;;4.97;1.60;;;;;;;17.48;91.10;101928.53;6398897;27;20053;-75
2022/06/10 08:02:00;;;;;;;6.78;2.33;;;;;;;17.57;90.44;101919.97;6399494;27;20054;-75
2022/06/10 08:05:01;;;;;;;5.38;2.08;;;;;;;17.60;87.37;101919.78;6399063;27;20043;-74
2022/06/10 08:08:03;;;;;;;6.10;2.20;;;;;;;17.64;87.64;101913.31;6399843;27;20062;-76
2022/06/10 08:11:05;;;;;;;3.17;2.10;;;;;;;17.74;86.59;101913.59;6399086;27;20050;-75
2022/06/10 08:14:08;;;;;;;4.13;2.63;;;;;;;17.80;87.29;101909.69;6399336;27;20053;-76
2022/06/10 08:17:09;;;;;;;3.65;1.77;;;;;;;17.85;82.91;101908.44;6399303;27;20050;-76
2022/06/10 08:20:18;;;;;;;2.40;1.77;;;;;;;17.94;82.78;101907.84;6398905;27;20052;-75
2022/06/10 08:23:18;;;;;;;5.97;1.63;;;;;;;18.02;82.62;101906.47;6399357;27;20485;-76
2022/06/10 08:26:21;;;;;;;1.52;1.42;;;;;;;18.08;82.62;101909.59;6396957;27;20038;-76
2022/06/10 08:29:22;;;;;;;3.97;1.55;;;;;;;18.22;82.27;101906.84;6399082;27;20058;-76
2022/06/10 08:32:24;;;;;;;7.13;1.75;;;;;;;18.28;81.54;101902.06;6398620;27;20406;-75
2022/06/10 08:35:25;;;;;;;4.80;1.83;;;;;;;18.38;82.40;101906.66;6398587;27;20489;-76
2022/06/10 08:38:27;;;;;;;3.95;1.90;;;;;;;18.46;81.16;101904.34;6398765;27;20051;-75
2022/06/10 08:41:39;;;;;;;5.35;2.47;;;;;;;18.49;82.56;101909.47;6398523;27;20050;-75
2022/06/10 08:44:48;;;;;;;4.78;2.00;;;;;;;18.53;80.81;101915.44;6398194;27;20047;-75
2022/06/10 08:48:01;;;;;;;4.55;2.63;;;;;;;18.45;80.89;101902.63;6398735;27;20057;-75
2022/06/10 08:51:13;;;;;;;4.63;1.80;;;;;;;18.45;83.85;101907.13;6398078;27;20494;-76
2022/06/10 08:54:17;;;;;;;5.78;2.33;;;;;;;18.47;82.41;101914.03;6398219;27;20053;-75
2022/06/10 08:57:27;;;;;;;5.63;2.05;;;;;;;18.59;83.16;101909.69;6396372;27;20069;-75
2022/06/10 09:00:31;;;;;;;4.13;1.75;;;;;;;18.60;82.41;101914.03;6398088;27;20043;-76
2022/06/10 09:03:41;;;;;;;3.20;1.95;;;;;;;18.56;81.44;101917.88;6398301;27;20051;-75
2022/06/10 09:06:51;;;;;;;3.85;1.63;;;;;;;18.45;82.26;101915.09;6398282;27;20047;-75
2022/06/10 09:09:54;;;;;;;2.88;1.38;;;;;;;18.44;84.50;101914.25;6397742;27;20475;-76
2022/06/10 09:13:19;;;;;;;4.75;1.88;;;;;;;18.68;80.68;101902.88;6398100;27;20038;-76
2022/06/10 09:16:26;;;;;;;2.53;1.23;;;;;;;18.95;80.78;101911.66;6397705;27;20051;-75
2022/06/10 09:19:36;;;;;;;4.35;1.50;;;;;;;19.13;76.11;101913.97;6398039;27;20050;-75
2022/06/10 09:22:43;;;;;;;3.40;1.60;;;;;;;18.99;75.04;101907.81;6397771;27;20042;-75
2022/06/10 09:25:47;;;;;;;2.83;1.38;;;;;;;18.84;77.45;101911.53;6383572;27;20050;-75
2022/06/10 09:28:50;;;;;;;3.00;1.85;;;;;;;18.90;78.01;101905.78;6371993;27;20043;-76
2022/06/10 09:32:00;;;;;;;2.63;1.55;;;;;;;19.04;77.27;101912.81;6371890;27;20482;-75
2022/06/10 09:35:05;;;;;;;;;;;;;;;19.03;78.18;101908.44;6372022;27;20122;-75
2022/06/10 09:38:14;;;;;;;4.53;1.30;;;;;;;18.98;74.13;101914.06;6372078;27;19920;-75
2022/06/10 09:41:27;;;;;;;7.68;1.05;;;;;;;19.13;70.70;101920.16;6371497;27;20454;-76
2022/06/10 09:44:37;;;;;;;0.57;0.50;;;;;;;19.28;67.78;101907.53;6371471;28;20051;-77
2022/06/10 09:47:52;;;;;;;2.25;0.77;;;;;;;19.47;66.18;101918.56;6371803;28;20051;-74
2022/06/10 09:51:01;;;;;;;3.00;0.70;;;;;;;19.76;66.62;101919.19;6371804;28;20103;-75
2022/06/10 09:54:26;;;;;;;8.32;3.35;;;;;;;20.01;65.26;101926.19;6371941;28;20491;-77
2022/06/10 09:57:53;;;;;;;2.58;1.00;;;;;;;20.02;65.48;101916.38;6372476;27;20066;-75
2022/06/10 10:01:03;;;;;;;2.20;1.08;;;;;;;19.98;66.03;101915.78;6354367;28;20410;-75
2022/06/10 10:04:46;;;;;;;2.42;0.65;;;;;;;19.97;66.83;101922.06;6371349;28;20044;-75
2022/06/10 10:07:51;;;;;;;3.40;0.80;;;;;;;20.09;68.12;101922.97;6341272;28;20054;-78
2022/06/10 10:10:55;;;;;;;1.48;0.93;;;;;;;20.16;65.98;101918.84;6371294;28;20510;-76
2022/06/10 10:14:08;;;;;;;2.35;0.90;;;;;;;20.18;67.78;101927.63;6371162;28;20120;-77
2022/06/10 10:17:36;;;;;;;4.30;1.70;;;;;;;20.18;67.21;101919.63;6372023;28;20047;-76
2022/06/10 10:20:56;;;;;;;1.77;1.10;;;;;;;20.09;69.82;101917.63;6371099;28;20043;-76
2022/06/10 10:23:59;;;;;;;1.38;0.93;;;;;;;20.06;68.68;101931.19;6375176;27;20058;-78
2022/06/10 10:27:00;;;;;;;4.20;1.55;;;;;;;20.01;71.33;101936.88;6402004;27;20061;-76
2022/06/10 10:30:06;;;;;;;2.83;1.10;;;;;;;19.91;71.70;101935.88;6401891;27;20051;-76
2022/06/10 10:33:13;;;;;;;3.03;1.45;;;;;;;19.81;73.17;101934.00;6401992;27;20054;-76
2022/06/10 10:36:23;;;;;;;2.22;1.02;;;;;;;19.62;72.42;101929.13;6401655;27;20050;-76
2022/06/10 10:39:29;;;;;;;2.47;1.10;;;;;;;19.51;71.66;101928.06;6401657;27;20043;-76
2022/06/10 10:42:35;;;;;;;2.38;0.80;;;;;;;19.51;73.47;101922.72;6401711;27;20046;-75
2022/06/10 10:45:38;;;;;;;3.28;1.10;;;;;;;19.51;71.53;101933.41;6401350;27;20057;-75
2022/06/10 10:48:48;;;;;;;5.90;0.95;;;;;;;19.48;71.66;101932.75;6401664;27;20047;-76
2022/06/10 10:51:50;;;;;;;;;;;;;;;19.55;70.06;101934.03;6377901;27;20426;-75
2022/06/10 10:54:55;;;;;;;3.92;0.80;;;;;;;19.56;69.24;101925.06;6376397;27;20010;-76
2022/06/10 10:58:08;;;;;;;1.27;0.50;;;;;;;19.76;69.93;101929.00;6375583;27;20047;-76
2022/06/10 11:01:43;;;;;;;2.20;0.75;;;;;;;19.99;68.61;101927.31;6375116;27;20434;-73
2022/06/10 11:04:38;;;;;;;1.15;0.60;;;;;;;20.17;66.53;101927.75;6374796;27;20057;-73
2022/06/10 11:07:39;;;;;;;2.05;0.40;;;;;;;20.38;66.91;101927.94;6375448;27;20050;-71
2022/06/10 11:10:51;;;;;;;4.38;0.52;;;;;;;20.34;68.85;101929.97;6374670;27;20047;-72
2022/06/10 11:13:57;;;;;;;1.30;0.55;;;;;;;20.42;67.46;101932.06;6375403;27;20057;-78
2022/06/10 11:17:12;;;;;;;1.02;0.60;;;;;;;20.40;67.74;101926.84;6375026;27;20093;-77
2022/06/10 11:20:25;;;;;;;0.50;0.50;;;;;;;20.47;69.58;101924.56;6369905;27;20047;-77
2022/06/10 11:23:27;;;;;;;2.20;0.98;;;;;;;20.58;66.25;101940.66;6350027;28;20051;-78
2022/06/10 11:26:29;;;;;;;1.35;0.75;;;;;;;20.51;65.54;101926.06;6399430;27;20043;-78
2022/06/10 11:29:30;;;;;;;1.75;0.50;;;;;;;20.57;66.16;101933.59;6398476;27;20062;-78
2022/06/10 11:32:38;;;;;;;1.27;0.40;;;;;;;20.83;64.16;101926.25;6374282;27;20043;-78
2022/06/10 11:35:58;;;;;;;0.95;0.50;;;;;;;20.96;65.06;101924.31;6366082;27;20047;-79
2022/06/10 11:39:14;;;;;;;0.52;0.40;;;;;;;21.17;64.65;101921.78;6366206;27;20058;-78
2022/06/10 11:42:18;;;;;;;2.35;0.75;;;;;;;21.99;62.90;101929.44;6371844;27;20043;-77
2022/06/10 11:45:22;;;;;;;3.38;0.60;;;;;;;22.35;62.72;101922.88;6374253;27;20467;-78
2022/06/10 11:48:34;;;;;;;1.30;0.70;;;;;;;22.29;61.05;101923.38;6375350;27;20047;-79
2022/06/10 11:51:41;;;;;;;4.70;0.80;;;;;;;22.10;62.60;101921.34;6374843;27;20066;-78
2022/06/10 11:54:50;;;;;;;3.85;1.10;;;;;;;21.73;63.09;101923.56;6374388;27;20047;-76
2022/06/10 12:01:24;;;;;;;0.63;0.50;;;;;;;22.52;62.88;101911.53;6374155;27;20422;-78
2022/06/10 12:04:32;;;;;;;0.80;0.73;;;;;;;22.41;63.75;101908.94;6389449;27;20565;-77
2022/06/10 12:07:39;;;;;;;0.80;0.65;;;;;;;22.26;63.78;101895.03;6386715;27;20214;-77
2022/06/10 12:10:49;;;;;;;2.15;0.68;;;;;;;22.20;65.33;101905.41;6369232;27;20055;-80
2022/06/10 12:13:59;;;;;;;2.30;0.65;;;;;;;21.76;65.46;101905.44;6372351;27;20054;-78
2022/06/10 12:17:05;;;;;;;0.98;0.60;;;;;;;21.51;66.60;101908.41;6370660;27;20054;-77
2022/06/10 12:20:16;;;;;;;1.10;0.60;;;;;;;21.18;66.48;101898.56;6360300;27;20043;-79
2022/06/10 12:23:24;;;;;;;2.92;0.93;;;;;;;20.86;68.57;101885.09;6360281;27;20043;-78
2022/06/10 12:26:38;;;;;;;2.85;1.42;;;;;;;20.59;72.44;101882.75;6347858;28;20181;-77
2022/06/10 12:29:45;;;;;;;5.20;1.73;;;;;;;20.58;71.29;101895.25;6348403;28;20051;-78
2022/06/10 12:32:52;;;;;;;3.72;0.80;;;;;;;20.49;73.23;101890.63;6361687;27;20046;-77
2022/06/10 12:35:55;;;;;;;2.47;0.90;;;;;;;20.52;71.92;101887.69;6373427;27;20510;-78
2022/06/10 12:39:00;;;;;;;1.95;0.80;;;;;;;20.44;72.79;101887.44;6373377;27;20046;-78
2022/06/10 12:42:10;;;;;;;2.15;0.70;;;;;;;20.48;72.82;101881.75;6373577;27;20047;-79
2022/06/10 12:45:21;;;;;;;0.98;0.70;;;;;;;20.65;71.71;101890.28;6373193;27;20058;-77
2022/06/10 12:48:26;;;;;;;2.55;0.70;;;;;;;20.87;72.52;101884.94;6372590;27;20180;-77
2022/06/10 12:51:36;;;;;;;0.95;0.70;;;;;;;20.97;72.75;101883.25;6372388;27;20046;-78
2022/06/10 12:54:46;;;;;;;2.10;1.02;;;;;;;21.29;70.14;101875.31;6373246;27;20495;-79
2022/06/10 12:57:48;;;;;;;4.25;0.60;;;;;;;21.70;70.05;101872.94;6371183;27;20046;-77
2022/06/10 13:00:51;;;;;;;3.10;0.55;;;;;;;22.09;68.39;101868.78;6373139;27;20054;-77
2022/06/10 13:03:55;;;;;;;3.58;0.70;;;;;;;22.39;67.31;101875.22;6386979;27;20079;-77
2022/06/10 13:06:58;;;;;;;1.65;0.68;;;;;;;22.38;65.91;101874.38;6399577;27;20046;-78
2022/06/10 13:10:44;;;;;;;0.63;0.50;;;;;;;22.66;65.88;101870.16;6399233;27;20043;-77
2022/06/10 13:13:45;;;;;;;0.90;0.50;;;;;;;22.74;69.00;101872.19;6398684;27;20047;-77
2022/06/10 13:17:06;;;;;;;1.48;0.82;;;;;;;23.59;62.37;101866.44;6399573;27;20077;-79
2022/06/10 13:20:22;;;;;;;0.73;0.70;;;;;;;24.38;61.75;101868.16;6399545;27;20043;-79
2022/06/10 13:23:25;;;;;;;0.40;0.40;;;;;;;24.71;62.22;101867.66;6399411;27;20050;-79
2022/06/10 13:26:30;;;;;;;1.95;0.70;;;;;;;24.51;59.76;101866.84;6398959;27;20054;-79
2022/06/10 13:29:32;;;;;;;3.75;0.52;;;;;;;23.56;61.68;101872.06;6398875;27;20054;-79
2022/06/10 13:32:33;;;;;;;0.85;0.60;;;;;;;23.18;64.58;101870.16;6397183;27;20051;-78
2022/06/10 13:35:37;;;;;;;1.38;0.63;;;;;;;22.82;65.57;101872.38;6397235;27;20054;-77
2022/06/10 13:38:38;;;;;;;0.55;0.50;;;;;;;22.45;66.58;101869.34;6398441;27;20047;-77
2022/06/10 13:41:52;;;;;;;0.93;0.63;;;;;;;22.13;67.30;101869.41;6397982;27;20050;-77
2022/06/10 13:44:53;;;;;;;1.33;0.70;;;;;;;21.91;70.17;101886.41;6397530;27;20055;-77
2022/06/10 13:47:59;;;;;;;2.80;1.13;;;;;;;21.75;70.72;101878.78;6397473;27;20050;-77
2022/06/10 13:51:14;;;;;;;1.50;0.80;;;;;;;21.83;71.51;101881.66;6397424;27;20557;-77
2022/06/10 13:54:21;;;;;;;2.33;0.82;;;;;;;22.11;68.62;101880.22;6397583;27;20125;-77
2022/06/10 13:57:31;;;;;;;2.75;0.85;;;;;;;22.08;71.84;101874.28;6396772;27;20046;-78
2022/06/10 14:00:35;;;;;;;0.75;0.57;;;;;;;22.23;70.56;101875.69;6373676;27;20054;-74
2022/06/10 14:03:44;;;;;;;1.63;0.70;;;;;;;22.94;66.59;101876.69;6376316;27;20050;-74
2022/06/10 14:06:47;;;;;;;;;;;;;;;23.46;66.83;101872.03;6377572;27;20043;-73
2022/06/10 14:09:49;;;;;;;1.70;0.60;;;;;;;23.68;64.78;101872.81;6376799;27;20014;-77
2022/06/10 14:13:00;;;;;;;4.03;0.93;;;;;;;23.58;64.20;101871.94;6374901;27;20043;-76
2022/06/10 14:16:01;;;;;;;2.75;0.85;;;;;;;23.25;63.85;101872.13;6362433;27;20043;-74
2022/06/10 14:19:07;;;;;;;2.33;0.88;;;;;;;23.18;64.74;101870.16;6377240;27;20054;-74
2022/06/10 14:22:10;;;;;;;3.03;0.85;;;;;;;23.07;64.45;101857.66;6376472;27;20058;-73
2022/06/10 14:25:21;;;;;;;2.45;0.70;;;;;;;23.09;64.36;101861.09;6376317;27;20043;-73
2022/06/10 14:28:24;;;;;;;2.42;0.90;;;;;;;23.32;65.08;101859.03;6376661;27;20040;-72
2022/06/10 14:31:29;;;;;;;0.88;0.57;;;;;;;23.87;65.35;101856.72;6376017;27;20055;-73
2022/06/10 14:34:30;;;;;;;3.00;0.90;;;;;;;23.96;62.55;101863.94;6377425;27;20043;-76